createdAt,value
2018-06-29T00:00:08.128Z,0.00
2018-06-29T00:01:08.150Z,0.00
2018-06-29T00:02:08.191Z,0.00
2018-06-29T00:03:08.143Z,0.00
2018-06-29T00:05:29.210Z,0.00
2018-06-29T00:06:29.197Z,0.00
2018-06-29T00:07:29.221Z,0.00
2018-06-29T00:08:37.883Z,0.00
2018-06-29T00:10:22.681Z,0.00
2018-06-29T00:11:22.667Z,0.00
2018-06-29T00:12:32.157Z,0.00
2018-06-29T00:14:16.099Z,0.00
2018-06-29T03:19:57.942Z,4.00
2018-06-29T03:20:57.929Z,4.00
2018-06-29T03:21:57.920Z,4.00
2018-06-29T03:22:57.920Z,8.00
2018-06-29T03:23:57.921Z,8.00
2018-06-29T03:24:57.917Z,8.00
2018-06-29T03:25:57.927Z,8.00
2018-06-29T03:26:57.915Z,8.00
2018-06-29T03:27:57.928Z,4.00
2018-06-29T03:28:57.922Z,8.00
2018-06-29T03:29:57.922Z,8.00
2018-06-29T03:30:57.931Z,8.00
2018-06-29T03:31:57.930Z,8.00
2018-06-29T03:32:57.953Z,8.00
2018-06-29T03:33:57.930Z,8.00
2018-06-29T03:34:57.936Z,8.00
2018-06-29T03:35:57.942Z,12.00
2018-06-29T03:36:57.943Z,12.00
2018-06-29T03:37:57.948Z,12.00
2018-06-29T03:38:57.938Z,12.00
2018-06-29T03:39:57.941Z,12.00
2018-06-29T03:40:57.945Z,12.00
2018-06-29T03:41:57.953Z,16.00
2018-06-29T03:42:57.949Z,16.00
2018-06-29T03:43:57.957Z,16.00
2018-06-29T03:44:57.960Z,20.00
2018-06-29T03:45:57.966Z,20.00
2018-06-29T03:46:57.965Z,20.00
2018-06-29T03:47:57.964Z,20.00
2018-06-29T03:48:57.971Z,24.00
2018-06-29T03:49:57.972Z,24.00
2018-06-29T03:50:57.975Z,20.00
2018-06-29T03:51:57.983Z,24.00
2018-06-29T03:52:57.993Z,20.00
2018-06-29T03:53:57.983Z,20.00
2018-06-29T03:54:57.989Z,24.00
2018-06-29T03:55:57.996Z,24.00
2018-06-29T03:56:57.992Z,20.00
2018-06-29T03:57:57.992Z,24.00
2018-06-29T03:58:58.000Z,24.00
2018-06-29T03:59:58.006Z,24.00
2018-06-29T04:00:58.008Z,28.00
2018-06-29T04:01:58.015Z,28.00
2018-06-29T04:02:58.018Z,32.00
2018-06-29T04:03:58.016Z,40.00
2018-06-29T04:04:58.014Z,40.00
2018-06-29T04:05:58.022Z,44.00
2018-06-29T04:06:58.029Z,48.00
2018-06-29T04:07:58.030Z,52.00
2018-06-29T04:08:58.037Z,52.00
2018-06-29T04:09:58.033Z,52.00
2018-06-29T04:10:58.035Z,60.00
2018-06-29T04:11:58.035Z,60.00
2018-06-29T04:12:58.097Z,64.00
2018-06-29T04:13:58.050Z,68.00
2018-06-29T04:14:58.057Z,72.00
2018-06-29T04:15:58.052Z,76.00
2018-06-29T04:16:58.053Z,80.00
2018-06-29T04:17:58.065Z,80.00
2018-06-29T04:18:58.062Z,84.00
2018-06-29T04:19:58.087Z,92.00
2018-06-29T04:20:58.072Z,96.00
2018-06-29T04:21:58.076Z,100.00
2018-06-29T04:22:58.081Z,104.00
2018-06-29T04:23:58.100Z,104.00
2018-06-29T04:24:58.082Z,112.00
2018-06-29T04:25:58.108Z,112.00
2018-06-29T04:26:58.093Z,116.00
2018-06-29T04:27:58.102Z,124.00
2018-06-29T04:28:58.099Z,124.00
2018-06-29T04:29:58.133Z,124.00
2018-06-29T04:30:58.108Z,124.00
2018-06-29T04:31:58.106Z,124.00
2018-06-29T04:32:58.112Z,120.00
2018-06-29T04:33:58.113Z,124.00
2018-06-29T04:34:58.120Z,124.00
2018-06-29T04:35:58.118Z,132.00
2018-06-29T04:36:58.122Z,140.00
2018-06-29T04:37:58.138Z,168.00
2018-06-29T04:38:58.125Z,208.00
2018-06-29T04:39:58.140Z,276.00
2018-06-29T04:40:58.135Z,352.00
2018-06-29T04:41:58.143Z,312.00
2018-06-29T04:42:58.184Z,328.00
2018-06-29T04:43:58.147Z,352.00
2018-06-29T04:44:58.151Z,360.00
2018-06-29T04:45:58.149Z,336.00
2018-06-29T04:46:58.154Z,328.00
2018-06-29T04:47:58.174Z,312.00
2018-06-29T04:48:58.163Z,308.00
2018-06-29T04:49:58.166Z,312.00
2018-06-29T04:50:58.171Z,340.00
2018-06-29T04:51:58.181Z,380.00
2018-06-29T04:52:58.182Z,444.00
2018-06-29T04:53:58.189Z,484.00
2018-06-29T04:54:58.191Z,520.00
2018-06-29T04:55:58.206Z,568.00
2018-06-29T04:56:58.189Z,576.00
2018-06-29T04:57:58.191Z,580.00
2018-06-29T04:58:58.199Z,600.00
2018-06-29T04:59:58.210Z,576.00
2018-06-29T05:00:58.238Z,592.00
2018-06-29T05:01:58.214Z,652.00
2018-06-29T05:02:58.208Z,700.00
2018-06-29T05:03:58.215Z,684.00
2018-06-29T05:04:58.217Z,668.00
2018-06-29T05:05:58.226Z,668.00
2018-06-29T05:06:58.225Z,624.00
2018-06-29T05:07:58.230Z,576.00
2018-06-29T05:08:58.239Z,472.00
2018-06-29T05:09:58.239Z,404.00
2018-06-29T05:10:58.240Z,372.00
2018-06-29T05:11:58.243Z,376.00
2018-06-29T05:12:58.250Z,368.00
2018-06-29T05:13:58.253Z,388.00
2018-06-29T05:14:58.261Z,396.00
2018-06-29T05:15:58.276Z,416.00
2018-06-29T05:16:58.267Z,416.00
2018-06-29T05:17:58.265Z,432.00
2018-06-29T05:18:58.271Z,444.00
2018-06-29T05:19:58.276Z,444.00
2018-06-29T05:20:58.286Z,456.00
2018-06-29T05:21:58.291Z,476.00
2018-06-29T05:22:58.295Z,520.00
2018-06-29T05:23:58.302Z,600.00
2018-06-29T05:24:58.290Z,760.00
2018-06-29T05:25:58.306Z,860.00
2018-06-29T05:26:58.295Z,1036.00
2018-06-29T05:27:58.302Z,964.00
2018-06-29T05:28:58.313Z,792.00
2018-06-29T05:29:58.311Z,684.00
2018-06-29T05:30:58.317Z,624.00
2018-06-29T05:31:58.318Z,584.00
2018-06-29T05:32:58.332Z,524.00
2018-06-29T05:33:58.324Z,460.00
2018-06-29T05:34:58.331Z,420.00
2018-06-29T05:35:58.463Z,392.00
2018-06-29T05:36:58.333Z,380.00
2018-06-29T05:37:58.344Z,372.00
2018-06-29T05:38:58.334Z,352.00
2018-06-29T05:39:58.345Z,336.00
2018-06-29T05:40:58.342Z,328.00
2018-06-29T05:41:58.351Z,328.00
2018-06-29T05:42:58.370Z,328.00
2018-06-29T05:43:58.360Z,328.00
2018-06-29T05:44:58.359Z,328.00
2018-06-29T05:45:58.367Z,324.00
2018-06-29T05:46:58.390Z,328.00
2018-06-29T05:47:58.370Z,316.00
2018-06-29T05:48:58.376Z,316.00
2018-06-29T05:49:58.403Z,312.00
2018-06-29T05:50:58.383Z,304.00
2018-06-29T05:51:58.381Z,292.00
2018-06-29T05:52:58.430Z,284.00
2018-06-29T05:54:07.038Z,276.00
2018-06-29T05:55:52.011Z,268.00
2018-06-29T05:56:51.996Z,268.00
2018-06-29T05:57:52.003Z,264.00
2018-06-29T05:58:52.009Z,264.00
2018-06-29T05:59:52.006Z,264.00
2018-06-29T06:00:52.035Z,268.00
2018-06-29T06:02:00.653Z,272.00
2018-06-29T06:03:45.660Z,280.00
2018-06-29T06:04:45.735Z,288.00
2018-06-29T06:05:45.628Z,296.00
2018-06-29T06:06:45.629Z,300.00
2018-06-29T06:07:45.627Z,308.00
2018-06-29T06:08:45.627Z,312.00
2018-06-29T06:09:45.633Z,324.00
2018-06-29T06:10:45.640Z,328.00
2018-06-29T06:11:45.643Z,332.00
2018-06-29T06:12:45.645Z,336.00
2018-06-29T06:13:45.644Z,336.00
2018-06-29T06:14:45.650Z,328.00
2018-06-29T06:15:45.685Z,332.00
2018-06-29T06:16:45.658Z,332.00
2018-06-29T06:17:45.660Z,336.00
2018-06-29T06:18:45.666Z,344.00
2018-06-29T06:19:45.670Z,356.00
2018-06-29T06:20:45.672Z,368.00
2018-06-29T06:21:45.688Z,388.00
2018-06-29T06:22:45.692Z,416.00
2018-06-29T06:23:45.700Z,440.00
2018-06-29T06:24:45.698Z,476.00
2018-06-29T06:25:45.701Z,520.00
2018-06-29T06:26:45.705Z,556.00
2018-06-29T06:27:45.719Z,600.00
2018-06-29T06:28:45.709Z,632.00
2018-06-29T06:29:45.698Z,660.00
2018-06-29T06:30:45.717Z,692.00
2018-06-29T06:31:45.718Z,716.00
2018-06-29T06:32:45.712Z,740.00
2018-06-29T06:33:45.720Z,784.00
2018-06-29T06:34:45.720Z,856.00
2018-06-29T06:35:45.722Z,896.00
2018-06-29T06:36:45.726Z,936.00
2018-06-29T06:37:45.733Z,964.00
2018-06-29T06:38:45.736Z,980.00
2018-06-29T06:39:45.741Z,976.00
2018-06-29T06:40:45.754Z,952.00
2018-06-29T06:41:45.741Z,920.00
2018-06-29T06:42:45.747Z,908.00
2018-06-29T06:43:45.771Z,896.00
2018-06-29T06:44:45.757Z,896.00
2018-06-29T06:45:45.763Z,872.00
2018-06-29T06:46:45.768Z,832.00
2018-06-29T06:47:45.767Z,788.00
2018-06-29T06:48:45.770Z,728.00
2018-06-29T06:49:45.774Z,692.00
2018-06-29T06:50:45.784Z,652.00
2018-06-29T06:51:45.782Z,636.00
2018-06-29T06:52:45.788Z,620.00
2018-06-29T06:53:45.884Z,632.00
2018-06-29T06:54:45.796Z,644.00
2018-06-29T06:55:45.799Z,676.00
2018-06-29T06:56:45.817Z,720.00
2018-06-29T06:57:45.811Z,788.00
2018-06-29T06:58:45.815Z,868.00
2018-06-29T06:59:45.816Z,948.00
2018-06-29T07:00:45.824Z,1016.00
2018-06-29T07:01:45.822Z,1092.00
2018-06-29T07:02:45.825Z,1172.00
2018-06-29T07:03:45.825Z,1276.00
2018-06-29T07:04:45.829Z,1480.00
2018-06-29T07:05:45.839Z,1688.00
2018-06-29T07:06:45.843Z,1992.00
2018-06-29T07:07:45.874Z,2264.00
2018-06-29T07:08:45.850Z,2560.00
2018-06-29T07:09:45.855Z,2832.00
2018-06-29T07:10:45.853Z,3072.00
2018-06-29T07:11:45.862Z,3356.00
2018-06-29T07:12:45.927Z,3572.00
2018-06-29T07:13:45.873Z,3732.00
2018-06-29T07:14:45.897Z,3824.00
2018-06-29T07:15:45.942Z,3724.00
2018-06-29T07:16:45.887Z,3532.00
2018-06-29T07:17:45.886Z,3328.00
2018-06-29T07:18:45.922Z,3336.00
2018-06-29T07:19:45.898Z,2996.00
2018-06-29T07:20:45.902Z,2848.00
2018-06-29T07:21:45.899Z,2808.00
2018-06-29T07:22:45.909Z,2684.00
2018-06-29T07:23:45.909Z,2488.00
2018-06-29T07:24:45.914Z,2696.00
2018-06-29T07:25:45.924Z,2928.00
2018-06-29T07:26:45.926Z,3028.00
2018-06-29T07:27:45.938Z,3260.00
2018-06-29T07:28:45.944Z,3608.00
2018-06-29T07:29:46.047Z,3972.00
2018-06-29T07:30:45.957Z,4184.00
2018-06-29T07:31:45.962Z,4428.00
2018-06-29T07:32:45.966Z,4532.00
2018-06-29T07:33:45.980Z,4184.00
2018-06-29T07:34:45.973Z,3960.00
2018-06-29T07:35:45.987Z,3828.00
2018-06-29T07:36:45.987Z,3632.00
2018-06-29T07:37:46.036Z,3576.00
2018-06-29T07:38:46.048Z,3628.00
2018-06-29T07:39:45.996Z,3748.00
2018-06-29T07:40:46.012Z,3796.00
2018-06-29T07:41:46.020Z,3628.00
2018-06-29T07:42:46.013Z,3424.00
2018-06-29T07:43:46.050Z,3300.00
2018-06-29T07:44:46.020Z,3244.00
2018-06-29T07:45:46.048Z,3208.00
2018-06-29T07:46:46.108Z,3212.00
2018-06-29T07:47:46.039Z,3312.00
2018-06-29T07:48:46.040Z,3408.00
2018-06-29T07:49:46.050Z,3288.00
2018-06-29T07:50:46.051Z,3208.00
2018-06-29T07:51:46.053Z,3120.00
2018-06-29T07:52:46.080Z,3176.00
2018-06-29T07:53:46.069Z,3156.00
2018-06-29T07:54:46.075Z,2976.00
2018-06-29T07:55:46.082Z,2916.00
2018-06-29T07:56:46.100Z,2964.00
2018-06-29T07:57:46.095Z,3008.00
2018-06-29T07:58:46.239Z,2972.00
2018-06-29T07:59:46.104Z,2864.00
2018-06-29T08:00:46.109Z,3008.00
2018-06-29T08:01:46.123Z,2884.00
2018-06-29T08:02:46.173Z,2860.00
2018-06-29T08:03:46.146Z,2852.00
2018-06-29T08:04:46.141Z,2756.00
2018-06-29T08:05:46.133Z,2668.00
2018-06-29T08:06:46.148Z,2608.00
2018-06-29T08:07:46.144Z,2608.00
2018-06-29T08:08:46.154Z,2676.00
2018-06-29T08:09:46.221Z,2820.00
2018-06-29T08:10:46.167Z,2976.00
2018-06-29T08:11:46.164Z,3168.00
2018-06-29T08:12:46.170Z,3312.00
2018-06-29T08:13:46.176Z,3560.00
2018-06-29T08:14:46.188Z,3536.00
2018-06-29T08:15:46.217Z,3672.00
2018-06-29T08:16:46.237Z,3572.00
2018-06-29T08:17:46.196Z,3484.00
2018-06-29T08:18:46.208Z,3468.00
2018-06-29T08:19:46.208Z,3652.00
2018-06-29T08:20:46.217Z,3636.00
2018-06-29T08:21:46.235Z,3600.00
2018-06-29T08:22:46.226Z,3532.00
2018-06-29T08:23:46.231Z,3528.00
2018-06-29T08:24:46.239Z,3312.00
2018-06-29T08:25:46.243Z,3096.00
2018-06-29T08:26:46.256Z,3144.00
2018-06-29T08:27:46.259Z,2832.00
2018-06-29T08:28:46.270Z,2612.00
2018-06-29T08:29:46.271Z,2496.00
2018-06-29T08:30:46.270Z,2400.00
2018-06-29T08:31:46.273Z,2364.00
2018-06-29T08:32:46.277Z,2404.00
2018-06-29T08:33:46.285Z,2400.00
2018-06-29T08:34:46.288Z,2420.00
2018-06-29T08:35:46.293Z,2460.00
2018-06-29T08:36:46.302Z,2528.00
2018-06-29T08:37:46.308Z,2584.00
2018-06-29T08:38:46.314Z,2692.00
2018-06-29T08:39:46.318Z,2812.00
2018-06-29T08:40:46.333Z,2892.00
2018-06-29T08:41:46.336Z,3284.00
2018-06-29T08:42:46.334Z,3196.00
2018-06-29T08:43:46.352Z,3328.00
2018-06-29T08:44:46.357Z,3256.00
2018-06-29T08:45:46.365Z,3100.00
2018-06-29T08:46:46.397Z,2980.00
2018-06-29T08:47:46.389Z,2956.00
2018-06-29T08:48:46.383Z,2952.00
2018-06-29T08:49:55.036Z,3224.00
2018-06-29T08:51:39.877Z,3240.00
2018-06-29T08:52:39.788Z,3228.00
